Time;durP1;ratioP1;P1;durP2;ratioP2;P2;SDS_P1;SDS_P2;PMS_P1;PMS_P2;Temp;Humidity;BMP_temperature;BMP_pressure;BME280_temperature;BME280_humidity;BME280_pressure;Samples;Min_cycle;Max_cycle;Signal;HPM_P1;HPM_P2
2023/05/12 00:01:23;;;;;;;17.20;6.00;;;;;;;8.27;49.47;99470.77;104317;1268;113246;-78
2023/05/12 00:03:52;;;;;;;17.00;6.00;;;;;;;8.26;49.68;99469.77;104320;1269;98793;-80
2023/05/12 00:06:21;;;;;;;15.10;5.60;;;;;;;8.25;49.58;99473.70;104396;1267;107940;-77
2023/05/12 00:08:49;;;;;;;15.70;5.40;;;;;;;8.24;49.60;99472.88;104333;1282;97993;-78
2023/05/12 00:11:17;;;;;;;16.70;5.70;;;;;;;8.24;49.63;99475.02;104358;1269;97969;-78
2023/05/12 00:13:45;;;;;;;15.90;5.20;;;;;;;8.25;49.80;99474.77;104376;1268;110273;-78
2023/05/12 00:16:16;;;;;;;13.70;5.30;;;;;;;8.25;50.00;99470.36;104363;1268;99306;-77
2023/05/12 00:18:44;;;;;;;15.80;5.70;;;;;;;8.24;49.79;99472.71;104303;1267;107885;-77
2023/05/12 00:21:12;;;;;;;16.00;5.70;;;;;;;8.22;49.83;99477.60;104380;1266;97912;-77
2023/05/12 00:23:40;;;;;;;19.70;5.70;;;;;;;8.21;50.10;99476.02;104326;1276;97984;-78
2023/05/12 00:26:08;;;;;;;16.40;5.50;;;;;;;8.20;50.30;99475.74;104283;1272;110077;-79
2023/05/12 00:28:36;;;;;;;15.70;5.70;;;;;;;8.18;50.29;99477.80;104359;1279;97953;-77
2023/05/12 00:31:04;;;;;;;10.60;5.30;;;;;;;8.17;50.20;99480.13;104293;1275;107876;-78
2023/05/12 00:33:33;;;;;;;16.80;5.30;;;;;;;8.17;50.14;99480.88;104386;1277;97995;-77
2023/05/12 00:36:02;;;;;;;14.70;5.20;;;;;;;8.15;50.33;99480.08;104361;1272;98305;-78
2023/05/12 00:38:30;;;;;;;16.70;5.20;;;;;;;8.13;50.54;99482.51;104289;1268;110805;-78
2023/05/12 00:40:58;;;;;;;16.30;5.80;;;;;;;8.11;50.53;99490.05;104334;1268;97970;-78
2023/05/12 00:43:26;;;;;;;12.40;5.20;;;;;;;8.10;50.57;99490.27;104338;1276;108552;-81
2023/05/12 00:45:54;;;;;;;14.00;5.20;;;;;;;8.08;50.61;99488.59;104277;1275;98051;-78
2023/05/12 00:48:23;;;;;;;12.30;5.10;;;;;;;8.07;50.56;99489.02;104291;1264;98090;-77
2023/05/12 00:50:51;;;;;;;16.20;6.10;;;;;;;8.06;50.68;99489.24;104415;1278;110378;-77
2023/05/12 00:53:19;;;;;;;16.80;5.30;;;;;;;8.04;50.58;99491.63;104356;1268;97987;-78
2023/05/12 00:55:47;;;;;;;15.10;5.90;;;;;;;8.04;51.00;99494.80;104310;1270;107604;-77
2023/05/12 00:58:14;;;;;;;18.40;6.10;;;;;;;8.04;51.12;99497.99;104323;1268;98037;-81
2023/05/12 01:00:42;;;;;;;14.50;5.70;;;;;;;8.05;50.99;99493.52;104314;1268;97958;-77
2023/05/12 01:03:11;;;;;;;12.30;5.20;;;;;;;8.07;51.00;99491.64;104328;1265;113223;-78
2023/05/12 01:05:59;;;;;;;18.50;5.70;;;;;;;8.12;51.05;99493.32;104366;1277;99019;-79
2023/05/12 01:08:28;;;;;;;16.20;5.30;;;;;;;8.18;51.13;99497.76;104303;1268;107588;-76
2023/05/12 01:10:56;;;;;;;17.50;5.30;;;;;;;8.22;51.34;99498.23;104283;1268;98028;-78
2023/05/12 01:13:26;;;;;;;13.00;5.00;;;;;;;8.26;51.43;99503.84;104324;1277;97916;-78
2023/05/12 01:15:57;;;;;;;13.80;5.50;;;;;;;8.31;51.07;99504.65;104305;1268;111363;-79
2023/05/12 01:18:26;;;;;;;18.90;5.90;;;;;;;8.34;51.41;99507.13;104293;1273;99348;-79
2023/05/12 01:20:55;;;;;;;16.40;5.60;;;;;;;8.38;51.50;99509.20;104438;1266;107006;-81
2023/05/12 01:23:30;;;;;;;18.50;6.40;;;;;;;8.39;51.53;99510.89;104294;1270;97967;-78
2023/05/12 01:26:05;;;;;;;17.30;5.60;;;;;;;8.40;51.52;99508.02;104348;1267;97985;-78
2023/05/12 01:28:35;;;;;;;15.70;5.80;;;;;;;8.40;51.61;99508.70;104320;1268;110312;-77
2023/05/12 01:31:05;;;;;;;18.50;5.60;;;;;;;8.40;51.48;99507.66;104383;1271;97974;-77
2023/05/12 01:33:34;;;;;;;14.20;5.20;;;;;;;8.39;51.59;99507.92;104512;1268;106434;-79
2023/05/12 01:36:03;;;;;;;14.00;5.70;;;;;;;8.35;51.76;99509.16;104341;1278;97973;-77
2023/05/12 01:38:31;;;;;;;13.10;5.00;;;;;;;8.31;51.64;99510.66;104285;1277;98563;-78
2023/05/12 01:40:59;;;;;;;17.70;5.90;;;;;;;8.28;51.73;99512.08;104282;1268;110928;-78
2023/05/12 01:43:27;;;;;;;16.20;5.70;;;;;;;8.27;51.54;99509.83;104320;1268;98043;-81
2023/05/12 01:45:54;;;;;;;14.70;5.30;;;;;;;8.24;51.71;99511.92;104318;1278;106916;-79
2023/05/12 01:48:22;;;;;;;17.60;5.60;;;;;;;8.20;52.05;99514.46;104281;1268;97993;-78
2023/05/12 01:50:51;;;;;;;14.70;5.30;;;;;;;8.18;52.04;99517.38;104283;1277;97914;-78
2023/05/12 01:53:19;;;;;;;13.50;5.50;;;;;;;8.14;52.06;99523.21;104379;1270;110803;-79
2023/05/12 01:55:47;;;;;;;15.10;5.50;;;;;;;8.11;52.22;99520.61;104288;1281;97939;-77
2023/05/12 01:58:15;;;;;;;16.50;5.90;;;;;;;8.09;52.18;99519.12;104339;1275;107153;-78
2023/05/12 02:00:43;;;;;;;11.60;5.30;;;;;;;8.08;52.46;99520.42;104296;1286;98050;-76
2023/05/12 02:03:10;;;;;;;16.00;5.60;;;;;;;8.05;52.56;99519.16;104305;1269;97996;-78
2023/05/12 02:05:39;;;;;;;8.90;4.90;;;;;;;8.04;52.42;99518.30;104316;1277;109462;-77
2023/05/12 02:08:08;;;;;;;19.90;5.70;;;;;;;8.04;52.48;99520.42;104276;1269;97961;-78
2023/05/12 02:10:36;;;;;;;14.80;5.60;;;;;;;8.05;52.54;99521.60;104258;1274;106718;-77
2023/05/12 02:13:04;;;;;;;13.30;5.50;;;;;;;8.06;52.42;99517.50;104319;1279;97967;-77
2023/05/12 02:15:31;;;;;;;14.90;5.80;;;;;;;8.07;52.69;99514.11;104304;1268;97950;-76
2023/05/12 02:18:00;;;;;;;20.90;6.20;;;;;;;8.06;52.80;99515.02;104318;1270;110249;-78
2023/05/12 02:20:28;;;;;;;13.30;5.60;;;;;;;8.07;52.63;99513.56;104319;1278;97947;-76
2023/05/12 02:22:56;;;;;;;13.20;5.80;;;;;;;8.08;52.89;99516.00;104301;1268;107675;-76
2023/05/12 02:25:24;;;;;;;16.00;5.70;;;;;;;8.07;53.04;99513.77;104291;1273;98919;-81
2023/05/12 02:27:52;;;;;;;15.80;6.10;;;;;;;8.07;53.05;99516.92;104316;1267;98457;-79
2023/05/12 02:30:20;;;;;;;14.10;5.20;;;;;;;8.07;52.96;99516.74;104275;1278;110109;-77
2023/05/12 02:32:49;;;;;;;12.00;5.10;;;;;;;8.09;52.97;99523.90;104306;1267;97974;-76
2023/05/12 02:35:18;;;;;;;14.90;5.90;;;;;;;8.10;53.07;99516.77;104318;1266;107139;-82
2023/05/12 02:37:45;;;;;;;16.40;5.40;;;;;;;8.10;53.06;99520.46;104306;1267;97959;-78
2023/05/12 02:40:13;;;;;;;12.10;5.10;;;;;;;8.09;53.17;99519.09;104274;1268;97882;-77
2023/05/12 02:42:42;;;;;;;12.50;5.00;;;;;;;8.08;53.17;99518.63;104292;1272;110411;-77
2023/05/12 02:45:10;;;;;;;12.50;4.90;;;;;;;8.07;53.14;99524.19;104332;1271;97956;-78
2023/05/12 02:47:39;;;;;;;13.80;4.90;;;;;;;8.04;53.12;99526.23;104266;1270;107937;-77
2023/05/12 02:50:08;;;;;;;15.40;5.70;;;;;;;8.02;53.28;99523.20;104327;1278;98090;-77
2023/05/12 02:52:36;;;;;;;13.20;5.50;;;;;;;7.97;53.38;99525.05;104419;1269;98061;-80
2023/05/12 02:55:04;;;;;;;16.10;5.00;;;;;;;7.91;53.34;99525.58;104297;1279;109970;-78
2023/05/12 02:57:32;;;;;;;14.30;5.30;;;;;;;7.84;53.57;99529.61;104289;1270;97962;-76
2023/05/12 03:00:05;;;;;;;15.40;5.20;;;;;;;7.81;53.51;99533.52;104336;1268;107388;-77
2023/05/12 03:02:35;;;;;;;15.90;6.00;;;;;;;7.79;53.39;99534.68;104296;1279;98254;-77
2023/05/12 03:05:04;;;;;;;14.60;5.60;;;;;;;7.75;53.59;99532.60;104350;1275;98082;-77
2023/05/12 03:07:32;;;;;;;14.70;5.40;;;;;;;7.71;53.65;99534.60;104270;1268;110511;-77
2023/05/12 03:10:03;;;;;;;16.90;6.20;;;;;;;7.68;53.62;99536.68;104407;1270;99189;-77
2023/05/12 03:12:31;;;;;;;16.20;6.10;;;;;;;7.65;53.73;99537.70;104333;1277;106827;-77
2023/05/12 03:14:59;;;;;;;15.00;5.90;;;;;;;7.64;53.63;99534.77;104340;1276;98074;-77
2023/05/12 03:17:27;;;;;;;14.80;5.80;;;;;;;7.62;53.68;99533.44;104260;1276;98093;-77
2023/05/12 03:19:55;;;;;;;14.90;6.40;;;;;;;7.59;53.60;99536.06;104312;1276;110577;-78
2023/05/12 03:22:23;;;;;;;20.70;6.70;;;;;;;7.57;53.73;99537.77;104264;1270;98028;-78
2023/05/12 03:24:51;;;;;;;19.60;9.10;;;;;;;7.54;53.88;99537.73;104280;1278;106888;-77
2023/05/12 03:27:19;;;;;;;21.50;8.40;;;;;;;7.54;53.80;99540.94;104294;1269;98089;-77
2023/05/12 03:29:48;;;;;;;19.70;7.80;;;;;;;7.54;54.11;99537.58;104324;1272;97897;-82
2023/05/12 03:32:17;;;;;;;19.40;8.00;;;;;;;7.53;53.87;99539.04;104309;1279;111495;-77
2023/05/12 03:34:47;;;;;;;17.20;7.10;;;;;;;7.51;54.19;99540.72;104415;1272;97874;-79
2023/05/12 03:37:15;;;;;;;21.80;7.60;;;;;;;7.48;54.22;99542.48;104305;1277;107201;-77
2023/05/12 03:39:43;;;;;;;17.10;7.30;;;;;;;7.46;54.39;99541.35;104340;1268;99262;-77
2023/05/12 03:42:12;;;;;;;20.20;8.10;;;;;;;7.44;54.20;99545.83;104540;1270;98112;-77
2023/05/12 03:44:41;;;;;;;17.90;7.00;;;;;;;7.44;54.23;99546.90;104570;1276;110415;-77
2023/05/12 03:47:10;;;;;;;17.20;7.00;;;;;;;7.44;54.52;99547.44;104520;1274;98046;-78
2023/05/12 03:49:38;;;;;;;20.40;6.70;;;;;;;7.45;54.39;99548.96;104582;1268;106734;-77
2023/05/12 03:52:06;;;;;;;16.30;6.50;;;;;;;7.46;54.57;99552.63;107910;1264;95597;-75
2023/05/12 03:54:34;;;;;;;16.40;6.60;;;;;;;7.45;54.45;99553.20;104946;1267;97884;-75
2023/05/12 03:57:05;;;;;;;17.90;6.60;;;;;;;7.47;54.68;99554.33;107935;1264;110432;-75
2023/05/12 03:59:33;;;;;;;15.00;6.20;;;;;;;7.50;54.65;99554.73;107938;1267;95867;-76
2023/05/12 04:02:01;;;;;;;14.00;6.30;;;;;;;7.54;54.78;99556.64;107656;1267;107881;-75
2023/05/12 04:04:29;;;;;;;16.50;6.50;;;;;;;7.57;54.73;99559.84;104511;1266;99281;-76
2023/05/12 04:06:58;;;;;;;16.70;6.40;;;;;;;7.61;54.89;99560.48;104467;1270;97971;-76
2023/05/12 04:09:26;;;;;;;19.70;6.80;;;;;;;7.66;54.80;99565.39;104823;1269;110552;-76
2023/05/12 04:11:54;;;;;;;18.70;6.70;;;;;;;7.68;54.92;99565.98;105120;1270;98018;-79
2023/05/12 04:14:22;;;;;;;18.30;7.10;;;;;;;7.70;55.04;99569.18;104276;1277;108018;-77
2023/05/12 04:17:06;;;;;;;19.20;6.90;;;;;;;7.77;55.13;99571.52;104265;1279;98068;-79
2023/05/12 04:19:34;;;;;;;19.00;7.20;;;;;;;7.82;55.16;99571.27;104284;1271;98572;-79
2023/05/12 04:22:02;;;;;;;15.70;6.70;;;;;;;7.85;55.14;99572.48;104298;1273;110516;-77
2023/05/12 04:24:30;;;;;;;16.50;6.40;;;;;;;7.88;55.34;99572.30;104348;1279;97971;-76
2023/05/12 04:27:07;;;;;;;18.50;6.80;;;;;;;7.92;55.30;99572.83;104283;1271;106319;-75
2023/05/12 04:29:35;;;;;;;18.20;7.10;;;;;;;7.96;55.57;99569.80;104284;1279;97973;-75
2023/05/12 04:32:04;;;;;;;16.20;6.30;;;;;;;8.02;55.61;99572.65;104301;1269;97912;-79
2023/05/12 04:34:33;;;;;;;16.20;6.50;;;;;;;8.06;55.67;99575.24;104262;1271;111646;-75
2023/05/12 04:37:01;;;;;;;20.30;7.40;;;;;;;8.11;55.68;99576.05;104313;1277;98798;-75
2023/05/12 04:39:29;;;;;;;18.40;6.90;;;;;;;8.19;55.47;99576.85;104271;1269;106400;-77
2023/05/12 04:42:04;;;;;;;17.00;7.00;;;;;;;8.34;55.70;99578.34;104304;1267;99307;-81
2023/05/12 04:44:32;;;;;;;19.00;7.10;;;;;;;8.49;55.78;99577.00;104447;1270;97961;-81
2023/05/12 04:47:08;;;;;;;18.80;7.60;;;;;;;8.64;56.04;99584.47;104429;1275;111332;-82
2023/05/12 04:49:36;;;;;;;15.60;6.80;;;;;;;8.82;56.08;99586.11;104459;1277;98732;-82
2023/05/12 04:52:04;;;;;;;16.00;7.00;;;;;;;9.01;55.99;99584.51;104786;1267;107468;-82
2023/05/12 04:54:32;;;;;;;15.90;6.80;;;;;;;9.17;56.14;99586.09;104411;1277;97987;-82
2023/05/12 04:57:00;;;;;;;16.00;6.40;;;;;;;9.27;56.00;99587.59;104500;1267;99316;-81
2023/05/12 04:59:28;;;;;;;23.00;7.00;;;;;;;9.32;56.07;99590.49;104469;1273;111302;-82
2023/05/12 05:01:57;;;;;;;16.90;6.20;;;;;;;9.36;56.06;99593.12;105096;1263;98030;-81
2023/05/12 05:04:25;;;;;;;14.50;6.10;;;;;;;9.39;56.08;99592.40;105263;1267;106835;-80
2023/05/12 05:06:54;;;;;;;17.70;7.00;;;;;;;9.44;56.14;99590.01;104608;1264;98089;-80
2023/05/12 05:09:22;;;;;;;16.30;5.90;;;;;;;9.52;56.18;99597.29;104324;1269;97960;-82
2023/05/12 05:11:50;;;;;;;16.30;6.00;;;;;;;9.65;56.21;99596.70;104482;1277;111431;-82
2023/05/12 05:14:18;;;;;;;15.20;5.80;;;;;;;9.83;56.39;99598.08;104310;1277;97954;-84
2023/05/12 05:16:49;;;;;;;19.10;5.90;;;;;;;10.07;56.36;99602.29;104394;1267;106663;-81
2023/05/12 05:19:17;;;;;;;18.00;6.60;;;;;;;10.26;56.43;99601.80;104436;1268;97962;-82
2023/05/12 05:21:56;;;;;;;14.10;6.10;;;;;;;10.38;56.33;99601.13;104444;1267;98084;-81
2023/05/12 05:24:24;;;;;;;12.40;5.50;;;;;;;10.43;56.09;99600.98;104422;1267;110730;-83
2023/05/12 05:26:59;;;;;;;15.80;6.40;;;;;;;10.43;56.10;99599.90;104401;1267;98140;-81
2023/05/12 05:29:30;;;;;;;10.00;5.00;;;;;;;10.43;56.21;99601.46;104411;1287;108406;-81
2023/05/12 05:31:58;;;;;;;15.60;5.50;;;;;;;10.42;56.15;99602.95;104399;1279;97980;-82
2023/05/12 05:34:29;;;;;;;13.50;5.30;;;;;;;10.46;56.17;99601.88;104465;1269;97948;-80
2023/05/12 05:36:56;;;;;;;15.40;5.90;;;;;;;10.48;56.10;99606.71;104469;1272;111291;-81
2023/05/12 05:39:24;;;;;;;16.70;6.30;;;;;;;10.52;56.12;99613.18;104431;1279;97944;-82
2023/05/12 05:41:52;;;;;;;13.60;5.80;;;;;;;10.60;56.24;99609.98;104351;1267;106969;-80
2023/05/12 05:44:21;;;;;;;18.70;6.20;;;;;;;10.74;56.27;99605.94;104355;1270;98816;-80
2023/05/12 05:46:48;;;;;;;11.50;5.10;;;;;;;10.84;56.27;99607.78;104906;1267;99169;-80
2023/05/12 05:49:28;;;;;;;16.30;5.80;;;;;;;10.88;56.16;99608.94;104363;1276;110883;-81
2023/05/12 05:51:56;;;;;;;16.20;6.10;;;;;;;10.90;56.28;99610.20;104712;1268;97907;-81
2023/05/12 05:54:24;;;;;;;18.30;5.80;;;;;;;10.88;56.25;99615.33;104443;1269;107064;-81
2023/05/12 05:56:52;;;;;;;12.20;5.40;;;;;;;10.82;56.26;99616.38;104800;1280;98057;-81
2023/05/12 05:59:20;;;;;;;13.10;5.50;;;;;;;10.78;56.23;99615.77;104884;1273;98031;-81
2023/05/12 06:01:48;;;;;;;15.90;6.40;;;;;;;10.78;56.30;99617.55;104769;1264;110412;-81
2023/05/12 06:04:23;;;;;;;16.70;6.10;;;;;;;10.85;56.38;99616.91;104584;1267;97954;-82
2023/05/12 06:06:52;;;;;;;13.20;5.60;;;;;;;10.95;56.52;99612.72;104519;1264;107099;-84
2023/05/12 06:09:20;;;;;;;16.30;5.60;;;;;;;11.06;56.42;99616.99;104591;1267;99177;-81
2023/05/12 06:11:49;;;;;;;14.50;5.70;;;;;;;11.17;56.54;99617.65;104323;1281;98034;-81
2023/05/12 06:14:17;;;;;;;15.60;5.60;;;;;;;11.27;56.52;99614.73;104299;1267;110758;-83
2023/05/12 06:16:45;;;;;;;11.40;4.80;;;;;;;11.37;56.53;99614.80;104504;1267;97949;-82
2023/05/12 06:19:14;;;;;;;12.10;4.90;;;;;;;11.47;56.50;99616.02;104470;1279;106128;-80
2023/05/12 06:21:45;;;;;;;13.20;5.20;;;;;;;11.60;56.62;99623.17;104474;1263;97984;-81
2023/05/12 06:24:13;;;;;;;11.90;4.90;;;;;;;11.72;56.64;99621.30;104634;1280;97899;-81
2023/05/12 06:26:41;;;;;;;13.70;5.60;;;;;;;11.84;56.66;99621.15;104726;1264;110837;-82
2023/05/12 06:29:09;;;;;;;19.10;5.80;;;;;;;11.96;56.48;99619.31;104501;1267;98838;-84
2023/05/12 06:31:39;;;;;;;14.80;5.40;;;;;;;12.06;56.53;99626.31;104414;1267;106715;-84
2023/05/12 06:34:07;;;;;;;13.30;5.20;;;;;;;12.16;56.46;99625.27;104501;1275;98182;-81
2023/05/12 06:36:36;;;;;;;10.90;5.70;;;;;;;12.24;56.42;99628.19;104617;1266;98247;-81
2023/05/12 06:39:10;;;;;;;12.70;4.80;;;;;;;12.33;56.48;99626.17;104449;1276;110625;-82
2023/05/12 06:41:39;;;;;;;13.60;5.30;;;;;;;12.44;56.50;99624.55;104421;1267;97972;-81
2023/05/12 06:44:11;;;;;;;13.10;5.40;;;;;;;12.51;56.43;99624.34;104443;1267;107701;-80
2023/05/12 06:46:40;;;;;;;8.10;4.80;;;;;;;12.60;56.50;99619.77;104478;1267;98062;-81
2023/05/12 06:49:11;;;;;;;11.90;4.60;;;;;;;12.72;56.36;99624.09;104448;1263;97913;-85
2023/05/12 06:51:39;;;;;;;13.50;5.30;;;;;;;12.85;56.42;99626.05;104478;1267;110095;-82
2023/05/12 06:54:07;;;;;;;17.00;5.50;;;;;;;12.93;56.36;99626.65;104395;1268;98098;-81
2023/05/12 06:56:37;;;;;;;14.90;5.30;;;;;;;13.06;56.38;99631.96;104437;1270;107674;-82
2023/05/12 06:59:05;;;;;;;14.30;5.50;;;;;;;13.19;56.25;99628.16;104421;1270;99307;-81
2023/05/12 07:01:34;;;;;;;14.80;5.80;;;;;;;13.33;56.44;99629.99;104330;1278;98785;-81
2023/05/12 07:04:02;;;;;;;11.90;4.90;;;;;;;13.48;56.31;99627.65;104378;1267;110734;-84
2023/05/12 07:06:31;;;;;;;11.70;5.60;;;;;;;13.62;56.31;99620.88;104429;1267;97974;-81
2023/05/12 07:09:03;;;;;;;13.20;4.90;;;;;;;13.76;56.35;99619.83;104408;1264;107986;-83
2023/05/12 07:11:32;;;;;;;9.10;4.50;;;;;;;13.89;56.23;99618.80;104394;1267;99332;-80
2023/05/12 07:14:00;;;;;;;16.70;5.00;;;;;;;14.01;56.15;99621.10;104471;1273;98017;-80
2023/05/12 07:16:28;;;;;;;11.20;4.80;;;;;;;14.08;55.69;99616.05;104462;1267;110535;-81
2023/05/12 07:18:56;;;;;;;9.50;4.80;;;;;;;14.14;55.46;99617.61;104478;1267;98066;-81
2023/05/12 07:21:33;;;;;;;16.40;4.80;;;;;;;14.21;55.53;99615.80;104456;1269;107900;-82
2023/05/12 07:24:05;;;;;;;16.20;5.30;;;;;;;14.26;55.37;99619.67;104481;1267;97974;-82
2023/05/12 07:26:33;;;;;;;11.20;5.10;;;;;;;14.29;55.50;99613.33;104556;1278;97923;-81
2023/05/12 07:29:02;;;;;;;10.80;5.20;;;;;;;14.35;55.38;99618.40;104308;1280;111747;-82
2023/05/12 07:31:31;;;;;;;13.90;4.90;;;;;;;14.39;55.23;99623.13;104519;1268;98084;-81
2023/05/12 07:34:01;;;;;;;12.40;5.30;;;;;;;14.37;54.94;99620.20;104441;1279;107859;-81
2023/05/12 07:36:33;;;;;;;11.40;4.40;;;;;;;14.32;55.08;99619.74;104526;1263;99189;-83
2023/05/12 07:39:01;;;;;;;16.20;4.70;;;;;;;14.31;55.05;99621.77;104576;1267;98848;-81
2023/05/12 07:41:29;;;;;;;10.80;4.10;;;;;;;14.29;54.89;99617.45;104439;1264;111432;-82
2023/05/12 07:44:01;;;;;;;10.00;4.40;;;;;;;14.24;54.79;99617.83;104527;1268;97937;-83
2023/05/12 07:46:29;;;;;;;12.60;4.60;;;;;;;14.23;54.99;99614.38;104508;1267;107452;-82
2023/05/12 07:48:57;;;;;;;10.40;4.40;;;;;;;14.29;55.06;99612.33;104474;1264;98705;-80
2023/05/12 07:51:25;;;;;;;9.10;4.40;;;;;;;14.33;54.78;99610.95;104448;1270;97982;-81
2023/05/12 07:53:56;;;;;;;12.70;4.40;;;;;;;14.33;54.70;99609.45;104480;1265;110860;-81
2023/05/12 07:56:24;;;;;;;11.30;4.50;;;;;;;14.30;54.58;99610.43;104542;1278;98063;-81
2023/05/12 07:58:52;;;;;;;11.90;4.70;;;;;;;14.28;54.61;99609.31;104435;1267;106179;-81
2023/05/12 08:01:23;;;;;;;13.80;4.40;;;;;;;14.31;54.55;99612.86;104408;1279;98080;-82
2023/05/12 08:03:51;;;;;;;9.70;3.70;;;;;;;14.33;54.15;99611.33;104412;1267;98022;-80
2023/05/12 08:06:20;;;;;;;9.30;3.80;;;;;;;14.34;54.35;99607.77;104299;1267;111154;-81
2023/05/12 08:08:48;;;;;;;10.70;4.10;;;;;;;14.40;54.35;99611.98;104470;1270;101493;-83
2023/05/12 08:11:16;;;;;;;13.00;4.20;;;;;;;14.42;54.19;99610.55;104428;1269;107664;-82
2023/05/12 08:13:44;;;;;;;7.40;4.00;;;;;;;14.47;53.83;99618.37;104454;1267;99189;-83
2023/05/12 08:16:12;;;;;;;9.60;3.90;;;;;;;14.51;53.86;99612.48;104465;1267;98787;-86
2023/05/12 08:18:40;;;;;;;11.10;4.00;;;;;;;14.54;53.95;99608.36;104512;1264;110882;-82
2023/05/12 08:21:09;;;;;;;7.30;4.10;;;;;;;14.58;53.96;99605.52;104490;1267;97985;-82
2023/05/12 08:23:37;;;;;;;11.00;3.60;;;;;;;14.66;53.79;99608.98;104457;1270;106575;-80
2023/05/12 08:26:08;;;;;;;9.40;3.40;;;;;;;14.73;53.75;99606.16;104304;1264;98150;-81
2023/05/12 08:28:36;;;;;;;11.10;3.90;;;;;;;14.77;53.53;99598.00;104465;1280;97887;-82
2023/05/12 08:31:04;;;;;;;13.10;4.20;;;;;;;14.83;53.51;99600.73;104410;1281;110586;-85
2023/05/12 08:33:35;;;;;;;8.00;3.50;;;;;;;14.88;53.36;99596.91;104491;1264;97912;-82
2023/05/12 08:36:03;;;;;;;10.70;3.70;;;;;;;14.93;53.32;99597.02;104403;1265;106752;-82
2023/05/12 08:38:32;;;;;;;9.20;3.80;;;;;;;14.95;53.26;99597.39;104423;1279;99288;-80
2023/05/12 08:41:12;;;;;;;7.80;3.50;;;;;;;14.98;52.58;99596.83;104448;1267;99283;-81
2023/05/12 08:43:43;;;;;;;12.10;3.50;;;;;;;14.97;52.57;99596.32;104461;1267;110810;-81
2023/05/12 08:46:11;;;;;;;8.00;3.40;;;;;;;14.98;52.78;99595.02;104512;1281;98172;-82
2023/05/12 08:48:40;;;;;;;9.70;3.90;;;;;;;15.03;52.75;99593.34;104447;1267;107821;-82
2023/05/12 08:51:10;;;;;;;9.70;3.80;;;;;;;15.11;52.77;99596.42;104441;1264;97947;-81
2023/05/12 08:53:40;;;;;;;7.20;3.50;;;;;;;15.18;52.73;99592.67;104403;1264;97952;-81
2023/05/12 08:56:10;;;;;;;10.30;3.80;;;;;;;15.25;52.31;99585.66;104483;1264;112161;-82
2023/05/12 08:58:44;;;;;;;7.00;3.00;;;;;;;15.31;52.23;99592.05;104563;1267;98057;-82
2023/05/12 09:01:14;;;;;;;13.10;4.00;;;;;;;15.34;51.95;99590.77;104465;1264;106740;-82
2023/05/12 09:03:43;;;;;;;9.70;3.70;;;;;;;15.36;51.91;99588.16;104479;1279;99202;-82
2023/05/12 09:06:12;;;;;;;6.00;3.30;;;;;;;15.36;51.00;99587.23;104453;1267;97986;-86
2023/05/12 09:08:42;;;;;;;6.00;3.20;;;;;;;15.39;51.21;99592.84;104418;1267;111662;-81
2023/05/12 09:11:12;;;;;;;10.20;3.70;;;;;;;15.44;51.59;99594.02;104519;1284;99195;-81
2023/05/12 09:13:59;;;;;;;8.60;3.60;;;;;;;15.48;51.10;99581.90;104503;1268;106833;-82
2023/05/12 09:16:34;;;;;;;11.20;3.30;;;;;;;15.58;50.44;99586.63;104276;1277;98069;-81
2023/05/12 09:19:05;;;;;;;8.50;2.70;;;;;;;15.65;50.47;99588.56;104449;1275;97934;-80
2023/05/12 09:21:34;;;;;;;12.20;3.80;;;;;;;15.66;50.15;99584.88;104405;1266;110124;-82
2023/05/12 09:24:05;;;;;;;8.00;3.40;;;;;;;15.68;49.82;99589.70;104351;1270;97895;-84
2023/05/12 09:26:53;;;;;;;7.40;3.00;;;;;;;15.71;50.14;99585.67;104501;1264;106937;-81
2023/05/12 09:29:21;;;;;;;6.50;2.80;;;;;;;15.76;50.03;99583.48;104415;1266;97999;-81
2023/05/12 09:32:02;;;;;;;9.40;3.30;;;;;;;15.80;50.00;99584.39;104490;1265;99326;-82
2023/05/12 09:34:34;;;;;;;6.40;3.20;;;;;;;15.85;50.08;99582.35;104449;1267;111310;-81
2023/05/12 09:37:05;;;;;;;11.30;3.20;;;;;;;15.95;50.10;99580.30;104457;1268;97969;-86
2023/05/12 09:39:35;;;;;;;6.90;3.40;;;;;;;16.01;50.18;99579.02;104495;1264;107103;-82
2023/05/12 09:42:11;;;;;;;5.40;2.60;;;;;;;16.07;49.97;99580.11;104515;1263;98090;-82
2023/05/12 09:44:40;;;;;;;6.60;2.60;;;;;;;16.20;49.41;99584.88;104461;1264;98007;-81
2023/05/12 09:47:09;;;;;;;4.30;2.40;;;;;;;16.34;49.15;99580.23;104461;1278;111703;-80
2023/05/12 09:49:37;;;;;;;65.90;6.90;;;;;;;16.45;49.27;99577.00;104559;1268;97980;-81
2023/05/12 09:52:05;;;;;;;5.50;2.80;;;;;;;16.55;48.08;99580.39;104451;1267;107908;-81
2023/05/12 09:54:33;;;;;;;8.30;2.90;;;;;;;16.64;48.64;99580.85;104379;1264;99317;-83
2023/05/12 09:57:06;;;;;;;8.00;2.90;;;;;;;16.67;48.46;99578.44;104443;1268;98254;-81
2023/05/12 09:59:37;;;;;;;7.40;3.00;;;;;;;16.67;48.56;99576.42;104470;1264;109714;-81
2023/05/12 10:02:08;;;;;;;8.30;3.00;;;;;;;16.69;48.11;99575.95;104471;1267;98081;-81
2023/05/12 10:04:46;;;;;;;7.30;2.60;;;;;;;16.70;47.63;99575.13;104463;1279;106887;-81
2023/05/12 10:07:16;;;;;;;6.50;3.00;;;;;;;16.72;47.93;99578.17;104510;1264;98074;-82
2023/05/12 10:09:47;;;;;;;8.40;2.90;;;;;;;16.72;47.84;99569.55;104526;1268;97913;-81
2023/05/12 10:12:15;;;;;;;6.70;2.60;;;;;;;16.74;47.59;99570.96;104563;1264;110579;-82
2023/05/12 10:14:44;;;;;;;4.30;2.50;;;;;;;16.85;47.44;99574.69;104306;1267;98055;-82
2023/05/12 10:17:14;;;;;;;8.60;2.50;;;;;;;17.00;47.54;99569.74;104547;1268;106739;-81
2023/05/12 10:19:43;;;;;;;9.00;2.40;;;;;;;17.17;47.07;99575.23;104488;1264;97937;-83
2023/05/12 10:22:14;;;;;;;9.30;2.70;;;;;;;17.36;46.66;99570.22;104555;1263;98558;-80
2023/05/12 10:24:44;;;;;;;5.00;2.60;;;;;;;17.45;46.45;99577.13;104496;1267;111706;-82
2023/05/12 10:27:16;;;;;;;4.90;2.60;;;;;;;17.57;46.08;99580.47;104468;1268;98006;-86
2023/05/12 10:29:45;;;;;;;8.40;3.20;;;;;;;17.70;46.07;99570.61;104511;1263;108038;-83
2023/05/12 10:32:16;;;;;;;7.40;2.60;;;;;;;17.76;45.29;99585.86;104428;1267;98061;-83
2023/05/12 10:34:44;;;;;;;9.50;2.80;;;;;;;17.81;44.83;99588.65;104489;1268;97962;-83
2023/05/12 10:37:12;;;;;;;13.40;3.30;;;;;;;17.94;45.47;99581.64;104542;1265;110672;-84
2023/05/12 10:39:49;;;;;;;8.60;2.90;;;;;;;17.93;44.80;99576.89;104500;1268;98003;-81
2023/05/12 10:42:25;;;;;;;7.80;2.80;;;;;;;17.70;45.15;99580.92;104475;1266;106599;-81
2023/05/12 10:44:55;;;;;;;8.30;2.50;;;;;;;17.45;45.02;99576.55;104376;1264;98882;-82
2023/05/12 10:47:36;;;;;;;7.40;2.90;;;;;;;17.35;45.14;99572.70;104530;1267;97970;-82
2023/05/12 10:50:05;;;;;;;11.00;2.90;;;;;;;17.35;44.98;99569.02;104519;1264;111309;-81
2023/05/12 10:52:33;;;;;;;9.70;2.90;;;;;;;17.37;45.15;99573.48;104500;1264;98320;-81
2023/05/12 10:55:03;;;;;;;8.00;2.90;;;;;;;17.45;44.38;99574.23;104429;1264;107006;-82
2023/05/12 10:57:31;;;;;;;4.40;2.70;;;;;;;17.58;44.44;99573.15;104391;1268;98061;-81
2023/05/12 11:00:02;;;;;;;8.70;3.10;;;;;;;17.77;44.06;99571.61;104526;1267;97973;-81
2023/05/12 11:02:32;;;;;;;10.10;3.90;;;;;;;17.93;44.16;99571.73;104485;1263;109729;-81
2023/05/12 11:05:12;;;;;;;5.20;2.70;;;;;;;18.11;43.95;99572.58;104467;1264;98444;-81
2023/05/12 11:07:48;;;;;;;8.80;3.20;;;;;;;18.30;43.73;99573.56;104499;1265;107430;-81
2023/05/12 11:10:18;;;;;;;11.10;3.30;;;;;;;18.46;43.60;99575.30;104577;1264;98699;-81
2023/05/12 11:12:46;;;;;;;10.00;3.10;;;;;;;18.31;43.10;99575.09;104508;1268;97981;-81
2023/05/12 11:15:15;;;;;;;8.70;3.70;;;;;;;18.12;43.41;99568.86;104448;1268;110756;-82
2023/05/12 11:17:45;;;;;;;13.20;3.10;;;;;;;17.96;43.37;99574.61;104514;1264;99332;-82
2023/05/12 11:20:32;;;;;;;7.30;2.90;;;;;;;17.88;43.14;99570.08;104522;1269;106725;-81
2023/05/12 11:22:59;;;;;;;6.40;3.20;;;;;;;17.98;43.22;99567.00;104500;1279;97934;-81
2023/05/12 11:25:27;;;;;;;9.80;2.90;;;;;;;18.08;42.79;99568.39;104411;1264;98066;-82
2023/05/12 11:27:56;;;;;;;5.80;2.60;;;;;;;18.07;42.56;99574.35;104472;1267;111211;-82
2023/05/12 11:30:23;;;;;;;6.00;2.70;;;;;;;18.05;42.71;99575.46;104474;1267;98460;-80